Time;durP1;ratioP1;P1;durP2;ratioP2;P2;SDS_P1;SDS_P2;PMS_P1;PMS_P2;Temp;Humidity;BMP_temperature;BMP_pressure;BME280_temperature;BME280_humidity;BME280_pressure;Samples;Min_cycle;Max_cycle;Signal;HPM_P1;HPM_P2
2024/02/07 00:00:40;;;;;;;0.20;0.20;;;;;;;;;;5038045;28;20017;-83
2024/02/07 00:03:05;;;;;;;0.20;0.20;;;;;;;;;;5036965;28;20090;-84
2024/02/07 00:05:30;;;;;;;0.20;0.20;;;;;;;;;;5034054;28;20067;-83
2024/02/07 00:07:56;;;;;;;0.20;0.20;;;;;;;;;;5037799;28;20028;-84
2024/02/07 00:10:21;;;;;;;0.20;0.20;;;;;;;;;;5027055;28;20014;-83
2024/02/07 00:12:46;;;;;;;0.30;0.30;;;;;;;;;;5019742;28;20029;-83
2024/02/07 00:15:12;;;;;;;0.20;0.20;;;;;;;;;;5023281;28;20033;-83
2024/02/07 00:17:37;;;;;;;0.50;0.50;;;;;;;;;;5027572;28;20063;-83
2024/02/07 00:20:02;;;;;;;0.20;0.20;;;;;;;;;;5020294;28;20421;-83
2024/02/07 00:22:28;;;;;;;0.20;0.20;;;;;;;;;;5026744;28;20372;-83
2024/02/07 00:24:53;;;;;;;0.20;0.20;;;;;;;;;;5020925;28;20018;-83
2024/02/07 00:27:18;;;;;;;0.10;0.10;;;;;;;;;;5029958;28;20017;-83
2024/02/07 00:29:43;;;;;;;0.10;0.10;;;;;;;;;;5023495;28;20479;-83
2024/02/07 00:32:09;;;;;;;0.20;0.20;;;;;;;;;;5027525;28;20029;-84
2024/02/07 00:34:34;;;;;;;0.73;0.73;;;;;;;;;;5032985;28;20070;-83
2024/02/07 00:36:59;;;;;;;0.20;0.20;;;;;;;;;;5035607;28;20029;-84
2024/02/07 00:39:24;;;;;;;0.27;0.27;;;;;;;;;;5023233;28;20036;-83
2024/02/07 00:41:50;;;;;;;0.20;0.20;;;;;;;;;;5021648;28;20100;-83
2024/02/07 00:44:15;;;;;;;0.93;0.40;;;;;;;;;;5026674;28;20025;-84
2024/02/07 00:46:41;;;;;;;0.20;0.20;;;;;;;;;;5030083;28;20041;-84
2024/02/07 00:49:12;;;;;;;0.20;0.20;;;;;;;;;;5014314;28;20025;-87
2024/02/07 00:51:37;;;;;;;0.20;0.20;;;;;;;;;;5014977;28;20038;-87
2024/02/07 00:54:03;;;;;;;0.20;0.20;;;;;;;;;;5025703;28;20103;-87
2024/02/07 00:56:28;;;;;;;0.70;0.70;;;;;;;;;;5030501;28;20029;-87
2024/02/07 00:58:53;;;;;;;0.20;0.20;;;;;;;;;;5030432;28;20037;-87
2024/02/07 01:01:19;;;;;;;0.20;0.20;;;;;;;;;;5021005;28;20052;-88
2024/02/07 01:03:44;;;;;;;0.20;0.20;;;;;;;;;;5030532;28;20365;-87
2024/02/07 01:06:10;;;;;;;1.03;0.57;;;;;;;;;;5030676;28;20013;-87
2024/02/07 01:08:35;;;;;;;0.20;0.20;;;;;;;;;;5027643;28;20498;-87
2024/02/07 01:11:00;;;;;;;0.10;0.10;;;;;;;;;;5025777;28;20026;-87
2024/02/07 01:13:25;;;;;;;0.20;0.20;;;;;;;;;;5035345;28;20417;-88
2024/02/07 01:15:51;;;;;;;0.20;0.20;;;;;;;;;;5005645;28;20030;-87
2024/02/07 01:18:16;;;;;;;0.10;0.10;;;;;;;;;;5024183;28;20083;-88
2024/02/07 01:20:41;;;;;;;0.30;0.30;;;;;;;;;;5013938;28;20025;-88
2024/02/07 01:23:08;;;;;;;0.20;0.20;;;;;;;;;;5034814;28;20053;-88
2024/02/07 01:25:33;;;;;;;0.20;0.20;;;;;;;;;;5034741;28;20022;-88
2024/02/07 01:27:59;;;;;;;0.27;0.27;;;;;;;;;;5038031;28;20032;-87
2024/02/07 01:30:24;;;;;;;0.20;0.20;;;;;;;;;;5034092;28;20033;-88
2024/02/07 01:32:49;;;;;;;0.20;0.20;;;;;;;;;;5022512;28;20552;-88
2024/02/07 01:35:15;;;;;;;0.30;0.30;;;;;;;;;;5037585;28;20083;-88
2024/02/07 01:37:40;;;;;;;0.20;0.20;;;;;;;;;;5024192;28;20095;-88
2024/02/07 01:40:09;;;;;;;0.20;0.20;;;;;;;;;;5026516;28;20034;-88
2024/02/07 01:42:34;;;;;;;0.20;0.20;;;;;;;;;;5037840;28;20037;-88
2024/02/07 01:45:21;;;;;;;0.20;0.20;;;;;;;;;;5033058;28;20021;-89
2024/02/07 01:47:46;;;;;;;0.20;0.20;;;;;;;;;;5034427;28;20036;-89
2024/02/07 01:50:11;;;;;;;0.70;0.70;;;;;;;;;;5017988;28;20018;-88
2024/02/07 01:52:39;;;;;;;0.20;0.20;;;;;;;;;;5045769;28;20043;-88
2024/02/07 01:55:05;;;;;;;0.20;0.20;;;;;;;;;;5024126;28;20431;-89
2024/02/07 01:57:30;;;;;;;0.57;0.57;;;;;;;;;;5035225;28;20064;-88
2024/02/07 01:59:56;;;;;;;0.40;0.40;;;;;;;;;;5026252;28;20049;-88
2024/02/07 02:02:24;;;;;;;0.20;0.20;;;;;;;;;;5033269;28;20440;-86
2024/02/07 02:04:49;;;;;;;0.20;0.20;;;;;;;;;;5041407;28;20461;-88
2024/02/07 02:07:16;;;;;;;0.63;0.60;;;;;;;;;;5033751;28;20032;-88
2024/02/07 02:09:41;;;;;;;0.37;0.37;;;;;;;;;;5028539;28;20108;-88
2024/02/07 02:12:07;;;;;;;0.20;0.20;;;;;;;;;;5034914;28;20115;-88
2024/02/07 02:14:33;;;;;;;0.20;0.20;;;;;;;;;;5027062;28;20087;-88
2024/02/07 02:17:00;;;;;;;0.20;0.20;;;;;;;;;;5033716;28;20477;-89
2024/02/07 02:19:25;;;;;;;0.20;0.20;;;;;;;;;;5031635;28;20038;-89
2024/02/07 02:22:03;;;;;;;0.27;0.27;;;;;;;;;;5031552;28;20561;-89
2024/02/07 02:24:39;;;;;;;0.20;0.20;;;;;;;;;;5032803;28;20033;-90
2024/02/07 02:27:05;;;;;;;0.20;0.20;;;;;;;;;;5033733;28;20017;-88
2024/02/07 02:29:36;;;;;;;0.20;0.20;;;;;;;;;;5035390;28;20112;-88
2024/02/07 02:32:03;;;;;;;1.85;1.20;;;;;;;;;;5024224;28;20390;-87
2024/02/07 02:34:29;;;;;;;0.20;0.20;;;;;;;;;;5025128;28;20029;-87
2024/02/07 02:36:54;;;;;;;0.20;0.20;;;;;;;;;;5030042;28;20469;-88
2024/02/07 02:39:20;;;;;;;0.50;0.50;;;;;;;;;;5023529;28;20021;-89
2024/02/07 02:41:45;;;;;;;0.40;0.40;;;;;;;;;;5033435;28;20026;-89
2024/02/07 02:44:11;;;;;;;0.20;0.20;;;;;;;;;;5034162;28;20113;-90
2024/02/07 02:46:36;;;;;;;0.50;0.50;;;;;;;;;;5032930;28;20045;-88
2024/02/07 02:49:01;;;;;;;0.20;0.20;;;;;;;;;;5027471;28;20024;-87
2024/02/07 02:51:27;;;;;;;0.20;0.20;;;;;;;;;;5033235;28;20014;-88
2024/02/07 02:53:52;;;;;;;0.60;0.60;;;;;;;;;;5031955;28;20126;-87
2024/02/07 02:56:18;;;;;;;1.90;1.37;;;;;;;;;;5027662;28;20032;-88
2024/02/07 02:58:44;;;;;;;2.30;1.80;;;;;;;;;;5029464;28;20034;-88
2024/02/07 03:01:10;;;;;;;0.90;0.83;;;;;;;;;;5025079;28;20535;-88
2024/02/07 03:03:36;;;;;;;0.20;0.20;;;;;;;;;;5031948;28;20033;-90
2024/02/07 03:06:03;;;;;;;0.20;0.20;;;;;;;;;;5009964;28;20037;-87
2024/02/07 03:08:39;;;;;;;0.20;0.20;;;;;;;;;;5027111;28;20108;-81
2024/02/07 03:11:05;;;;;;;0.20;0.20;;;;;;;;;;5011541;28;20083;-81
2024/02/07 03:13:30;;;;;;;0.20;0.20;;;;;;;;;;5008139;28;20063;-81
2024/02/07 03:15:56;;;;;;;0.20;0.20;;;;;;;;;;5032698;28;20442;-81
2024/02/07 03:18:21;;;;;;;0.27;0.27;;;;;;;;;;5027342;28;20533;-82
2024/02/07 03:20:47;;;;;;;0.20;0.20;;;;;;;;;;5025688;28;20390;-81
2024/02/07 03:23:13;;;;;;;0.40;0.40;;;;;;;;;;5031640;28;20129;-81
2024/02/07 03:25:40;;;;;;;0.10;0.10;;;;;;;;;;5030107;28;20057;-81
2024/02/07 03:28:10;;;;;;;0.63;0.63;;;;;;;;;;5029430;28;20030;-81
2024/02/07 03:30:36;;;;;;;0.20;0.20;;;;;;;;;;5029356;28;20022;-80
2024/02/07 03:33:01;;;;;;;0.20;0.20;;;;;;;;;;5031726;28;20026;-80
2024/02/07 03:35:26;;;;;;;1.13;1.03;;;;;;;;;;5030935;28;20108;-81
2024/02/07 03:37:52;;;;;;;1.67;1.57;;;;;;;;;;5031362;28;20056;-80
2024/02/07 03:40:18;;;;;;;0.30;0.30;;;;;;;;;;5031264;28;20029;-81
2024/02/07 03:42:44;;;;;;;0.20;0.20;;;;;;;;;;5026666;28;20066;-81
2024/02/07 03:45:14;;;;;;;0.50;0.43;;;;;;;;;;5029949;28;20108;-81
2024/02/07 03:47:39;;;;;;;0.20;0.20;;;;;;;;;;5007900;28;20045;-81
2024/02/07 03:50:10;;;;;;;0.20;0.20;;;;;;;;;;5025532;28;20021;-80
2024/02/07 03:52:39;;;;;;;0.70;0.63;;;;;;;;;;5032998;28;20037;-81
2024/02/07 03:55:06;;;;;;;0.30;0.30;;;;;;;;;;5031148;28;20033;-81
2024/02/07 03:57:31;;;;;;;0.40;0.40;;;;;;;;;;5023524;28;20029;-81
2024/02/07 03:59:57;;;;;;;0.43;0.43;;;;;;;;;;5028674;28;20038;-81
2024/02/07 04:02:22;;;;;;;2.00;0.87;;;;;;;;;;5024771;28;20017;-81
2024/02/07 04:04:51;;;;;;;0.20;0.20;;;;;;;;;;5009381;28;20115;-81
2024/02/07 04:07:17;;;;;;;0.30;0.30;;;;;;;;;;5030561;28;20032;-81
2024/02/07 04:09:43;;;;;;;1.30;0.60;;;;;;;;;;5030008;28;20013;-81
2024/02/07 05:17:10;;;;;;;7.90;1.40;;;;;;;;;;5030164;28;20449;-81
2024/02/07 05:19:35;;;;;;;10.90;1.20;;;;;;;;;;5030574;28;20026;-80
2024/02/07 05:22:00;;;;;;;7.83;1.43;;;;;;;;;;5029881;28;20029;-81
2024/02/07 05:24:27;;;;;;;11.47;1.53;;;;;;;;;;5027475;28;20100;-81
2024/02/07 05:26:52;;;;;;;9.43;2.00;;;;;;;;;;5031094;28;20145;-81
2024/02/07 05:29:18;;;;;;;11.53;2.13;;;;;;;;;;5042895;28;20548;-81
2024/02/07 05:31:44;;;;;;;13.97;1.43;;;;;;;;;;5030274;28;20025;-81
2024/02/07 05:34:09;;;;;;;13.30;1.80;;;;;;;;;;5024442;28;20101;-81
2024/02/07 05:36:34;;;;;;;10.40;1.93;;;;;;;;;;5031360;28;20389;-81
2024/02/07 05:38:59;;;;;;;11.90;1.87;;;;;;;;;;5038252;28;20022;-82
2024/02/07 05:41:25;;;;;;;12.77;1.50;;;;;;;;;;5053016;28;20030;-83
2024/02/07 05:43:52;;;;;;;11.27;1.40;;;;;;;;;;5053935;28;20033;-82
2024/02/07 05:46:17;;;;;;;12.10;1.80;;;;;;;;;;5051289;28;20025;-82
2024/02/07 05:48:42;;;;;;;17.73;1.53;;;;;;;;;;5051143;28;20041;-83
2024/02/07 05:51:17;;;;;;;15.23;1.83;;;;;;;;;;5040787;28;20005;-82
2024/02/07 05:53:42;;;;;;;11.07;1.50;;;;;;;;;;5022491;28;20032;-82
2024/02/07 05:56:07;;;;;;;15.30;1.67;;;;;;;;;;5033290;28;20025;-81
2024/02/07 05:58:33;;;;;;;8.00;2.20;;;;;;;;;;5034235;28;20080;-81
2024/02/07 06:00:59;;;;;;;17.77;2.03;;;;;;;;;;5015403;28;20160;-81
2024/02/07 06:03:24;;;;;;;11.30;1.87;;;;;;;;;;5031354;28;20108;-81
2024/02/07 06:05:49;;;;;;;15.77;1.80;;;;;;;;;;5032383;28;20016;-81
2024/02/07 06:08:15;;;;;;;18.13;2.37;;;;;;;;;;5021752;28;20389;-80
2024/02/07 06:10:42;;;;;;;17.03;1.83;;;;;;;;;;5033702;28;20027;-81
2024/02/07 06:13:07;;;;;;;19.53;2.43;;;;;;;;;;5028434;28;20029;-81
2024/02/07 06:15:33;;;;;;;18.07;1.60;;;;;;;;;;5032940;28;21415;-80
2024/02/07 06:17:59;;;;;;;17.63;2.00;;;;;;;;;;5030137;28;20029;-81
2024/02/07 06:20:24;;;;;;;23.40;1.77;;;;;;;;;;5014719;28;20017;-81
2024/02/07 06:22:49;;;;;;;15.67;1.87;;;;;;;;;;5031014;28;20052;-81
2024/02/07 06:25:15;;;;;;;21.23;3.30;;;;;;;;;;5032333;28;20024;-82
2024/02/07 06:27:40;;;;;;;26.30;4.43;;;;;;;;;;5025288;28;20037;-81
2024/02/07 06:30:06;;;;;;;24.50;4.00;;;;;;;;;;5035201;28;20465;-81
2024/02/07 06:32:31;;;;;;;22.63;2.80;;;;;;;;;;5033684;28;20037;-81
2024/02/07 06:34:56;;;;;;;19.70;2.50;;;;;;;;;;5040470;28;20018;-81
2024/02/07 06:37:21;;;;;;;20.80;1.97;;;;;;;;;;5032839;28;20444;-83
2024/02/07 06:39:46;;;;;;;17.90;2.70;;;;;;;;;;5032020;28;20029;-81
2024/02/07 06:42:12;;;;;;;15.33;2.00;;;;;;;;;;5032743;28;20021;-81
2024/02/07 06:44:37;;;;;;;16.97;1.57;;;;;;;;;;5032393;28;20018;-81
2024/02/07 06:47:02;;;;;;;16.03;2.40;;;;;;;;;;5032853;28;20064;-81
2024/02/07 06:49:28;;;;;;;10.27;1.80;;;;;;;;;;5030609;28;20501;-81
2024/02/07 06:51:53;;;;;;;20.43;2.07;;;;;;;;;;5033018;28;20025;-81
2024/02/07 06:54:18;;;;;;;16.87;2.53;;;;;;;;;;5028842;28;20035;-81
2024/02/07 06:56:43;;;;;;;16.50;2.10;;;;;;;;;;5032114;28;20513;-81
2024/02/07 06:59:11;;;;;;;13.23;2.00;;;;;;;;;;5026629;28;20371;-81
2024/02/07 07:01:37;;;;;;;15.27;2.03;;;;;;;;;;5034525;28;20049;-82
2024/02/07 07:04:02;;;;;;;14.83;1.87;;;;;;;;;;5025549;28;20118;-81
2024/02/07 07:06:27;;;;;;;12.77;1.90;;;;;;;;;;5032624;28;20026;-81
2024/02/07 07:08:53;;;;;;;22.13;2.00;;;;;;;;;;5013183;28;20551;-81
2024/02/07 07:11:18;;;;;;;17.57;2.73;;;;;;;;;;5025034;28;20026;-81
2024/02/07 07:13:43;;;;;;;20.80;2.67;;;;;;;;;;5032380;28;20103;-81
2024/02/07 07:16:09;;;;;;;19.90;2.67;;;;;;;;;;5030769;28;20029;-81
2024/02/07 07:18:34;;;;;;;20.63;2.43;;;;;;;;;;5031271;28;20025;-81
2024/02/07 07:20:59;;;;;;;14.07;2.00;;;;;;;;;;5030934;28;20067;-81
2024/02/07 07:23:24;;;;;;;17.47;2.13;;;;;;;;;;5031312;28;20061;-81
2024/02/07 07:25:50;;;;;;;24.07;4.63;;;;;;;;;;5033339;28;20026;-81
2024/02/07 07:28:15;;;;;;;13.30;2.30;;;;;;;;;;5032081;28;20029;-81
2024/02/07 07:30:40;;;;;;;16.57;2.47;;;;;;;;;;5030273;28;20104;-81
2024/02/07 07:33:06;;;;;;;14.97;1.67;;;;;;;;;;5029575;28;20432;-81
2024/02/07 07:35:31;;;;;;;11.73;1.73;;;;;;;;;;5031683;28;20053;-81
2024/02/07 07:38:03;;;;;;;19.00;2.10;;;;;;;;;;5033061;28;20021;-81
2024/02/07 07:40:29;;;;;;;22.90;4.57;;;;;;;;;;5030404;28;20391;-81
2024/02/07 07:42:54;;;;;;;22.40;4.57;;;;;;;;;;5027752;28;20053;-81
2024/02/07 07:45:19;;;;;;;22.97;4.70;;;;;;;;;;5029433;28;20021;-81
2024/02/07 07:47:44;;;;;;;21.90;4.00;;;;;;;;;;5020942;28;20014;-81
2024/02/07 07:50:10;;;;;;;19.07;2.73;;;;;;;;;;5030256;28;20470;-81
2024/02/07 07:52:35;;;;;;;21.60;2.63;;;;;;;;;;5037458;28;20091;-82
2024/02/07 07:55:00;;;;;;;21.10;2.60;;;;;;;;;;5030838;28;20086;-81
2024/02/07 07:57:25;;;;;;;15.40;1.80;;;;;;;;;;5030939;28;20517;-81
2024/02/07 07:59:51;;;;;;;17.77;2.27;;;;;;;;;;5012269;28;20120;-82
2024/02/07 08:02:16;;;;;;;19.97;2.17;;;;;;;;;;5031032;28;20029;-81
2024/02/07 08:04:41;;;;;;;15.53;2.60;;;;;;;;;;5026827;28;20021;-82
2024/02/07 08:07:08;;;;;;;19.87;1.97;;;;;;;;;;5032693;28;20082;-81
2024/02/07 08:09:33;;;;;;;13.80;2.20;;;;;;;;;;5025554;28;20052;-81
2024/02/07 08:11:58;;;;;;;13.77;2.20;;;;;;;;;;5023700;28;20033;-82
2024/02/07 08:14:23;;;;;;;11.33;2.03;;;;;;;;;;5027364;28;20014;-82
2024/02/07 08:16:49;;;;;;;11.57;1.80;;;;;;;;;;5027214;28;20096;-82
2024/02/07 08:19:15;;;;;;;10.40;1.87;;;;;;;;;;5029032;28;20068;-82
2024/02/07 08:21:40;;;;;;;15.23;2.07;;;;;;;;;;5028289;28;20096;-82
2024/02/07 08:24:05;;;;;;;14.87;2.80;;;;;;;;;;5024134;28;20065;-82
2024/02/07 08:26:31;;;;;;;10.60;1.67;;;;;;;;;;5020066;28;20048;-81
2024/02/07 08:28:56;;;;;;;18.97;2.70;;;;;;;;;;5030771;28;20032;-81
2024/02/07 08:31:21;;;;;;;13.93;2.53;;;;;;;;;;5028871;28;20434;-81
2024/02/07 08:33:46;;;;;;;12.97;2.47;;;;;;;;;;5030467;28;20042;-81
2024/02/07 08:36:12;;;;;;;13.80;1.73;;;;;;;;;;5027861;28;20032;-81
2024/02/07 08:38:37;;;;;;;13.27;1.50;;;;;;;;;;5030425;28;20029;-81
2024/02/07 08:41:02;;;;;;;14.70;1.90;;;;;;;;;;5028229;28;20421;-82
2024/02/07 08:43:28;;;;;;;19.17;2.67;;;;;;;;;;5030116;28;20032;-81
2024/02/07 08:45:53;;;;;;;13.17;3.03;;;;;;;;;;5029259;28;20022;-81
2024/02/07 08:48:18;;;;;;;15.73;2.63;;;;;;;;;;5027567;28;20390;-81
2024/02/07 08:50:43;;;;;;;18.30;3.07;;;;;;;;;;5017244;28;20013;-82
2024/02/07 08:53:10;;;;;;;24.90;4.23;;;;;;;;;;5030172;28;20033;-81
2024/02/07 08:55:35;;;;;;;17.87;3.43;;;;;;;;;;5010632;28;20036;-82
2024/02/07 08:58:01;;;;;;;17.47;2.77;;;;;;;;;;5028329;28;20486;-81
2024/02/07 09:00:26;;;;;;;13.33;2.20;;;;;;;;;;5029023;28;20048;-81
2024/02/07 09:02:52;;;;;;;17.77;1.77;;;;;;;;;;5029668;28;20017;-81
2024/02/07 09:05:19;;;;;;;18.27;2.33;;;;;;;;;;5029558;28;20022;-81
2024/02/07 09:07:44;;;;;;;17.33;2.03;;;;;;;;;;5028920;28;20021;-81
2024/02/07 09:10:10;;;;;;;14.30;2.03;;;;;;;;;;5022566;28;20033;-80
2024/02/07 09:12:36;;;;;;;18.07;2.40;;;;;;;;;;5028719;28;20034;-81
2024/02/07 09:15:01;;;;;;;11.10;2.53;;;;;;;;;;5029970;28;20484;-80
2024/02/07 09:17:26;;;;;;;16.33;1.90;;;;;;;;;;5033216;28;20521;-81
2024/02/07 09:19:52;;;;;;;16.30;1.90;;;;;;;;;;5015867;28;20030;-81
2024/02/07 09:22:17;;;;;;;15.50;1.80;;;;;;;;;;5028160;28;20056;-81
2024/02/07 09:24:43;;;;;;;11.90;1.63;;;;;;;;;;5028889;28;20474;-81
2024/02/07 09:27:08;;;;;;;15.13;2.00;;;;;;;;;;5028927;28;20075;-82
2024/02/07 09:29:33;;;;;;;11.57;2.10;;;;;;;;;;5030747;28;20037;-81
2024/02/07 09:31:59;;;;;;;14.50;2.03;;;;;;;;;;5038049;28;20026;-81
2024/02/07 09:34:24;;;;;;;14.80;2.00;;;;;;;;;;5032571;28;20083;-81
2024/02/07 09:36:49;;;;;;;12.07;2.00;;;;;;;;;;5025275;28;20041;-81
2024/02/07 09:39:14;;;;;;;9.83;1.70;;;;;;;;;;5025597;28;20503;-81
2024/02/07 09:41:40;;;;;;;10.50;1.90;;;;;;;;;;5032567;28;20064;-81
2024/02/07 09:44:06;;;;;;;11.80;1.80;;;;;;;;;;5031705;28;20079;-81
2024/02/07 09:46:36;;;;;;;13.10;1.50;;;;;;;;;;5028396;28;20087;-81
2024/02/07 09:49:02;;;;;;;18.53;1.90;;;;;;;;;;5032183;28;20033;-82
2024/02/07 09:51:27;;;;;;;12.70;1.63;;;;;;;;;;5033320;28;20051;-81
2024/02/07 09:53:53;;;;;;;11.17;1.90;;;;;;;;;;5035356;28;20060;-82
2024/02/07 09:56:18;;;;;;;11.93;1.50;;;;;;;;;;5033527;28;20095;-81
2024/02/07 09:58:43;;;;;;;14.07;1.70;;;;;;;;;;5032269;28;20044;-82
2024/02/07 10:01:12;;;;;;;12.00;1.60;;;;;;;;;;5030684;28;20040;-81
2024/02/07 10:03:40;;;;;;;13.80;2.13;;;;;;;;;;5031461;28;20041;-81
2024/02/07 10:06:05;;;;;;;11.23;1.77;;;;;;;;;;5025188;28;20018;-81
2024/02/07 10:08:30;;;;;;;14.23;1.83;;;;;;;;;;5031780;28;20392;-81
2024/02/07 10:10:57;;;;;;;10.77;1.90;;;;;;;;;;5031644;28;20022;-81
2024/02/07 10:13:23;;;;;;;12.50;2.20;;;;;;;;;;5024367;28;20573;-81
2024/02/07 10:15:48;;;;;;;15.47;1.80;;;;;;;;;;5029808;28;20129;-81
2024/02/07 10:18:14;;;;;;;10.07;1.63;;;;;;;;;;5030281;28;20480;-81
2024/02/07 10:20:50;;;;;;;22.13;2.33;;;;;;;;;;5029768;28;20044;-81
2024/02/07 10:23:15;;;;;;;14.20;2.00;;;;;;;;;;5021432;28;20556;-80
2024/02/07 10:25:47;;;;;;;12.73;2.27;;;;;;;;;;5033603;28;20021;-79
2024/02/07 10:28:14;;;;;;;15.00;3.33;;;;;;;;;;5027142;28;20060;-79
2024/02/07 10:30:39;;;;;;;10.93;1.77;;;;;;;;;;5012371;28;20033;-80
2024/02/07 10:33:05;;;;;;;12.53;1.60;;;;;;;;;;5030163;28;20700;-79
2024/02/07 10:35:30;;;;;;;14.97;2.27;;;;;;;;;;5030494;28;20030;-80
2024/02/07 10:37:57;;;;;;;17.17;2.20;;;;;;;;;;5027513;28;20018;-79
2024/02/07 10:40:23;;;;;;;8.67;1.67;;;;;;;;;;5025900;28;20378;-80
2024/02/07 10:42:52;;;;;;;12.30;1.63;;;;;;;;;;5030904;28;20021;-80
2024/02/07 10:45:17;;;;;;;20.90;1.93;;;;;;;;;;5031793;28;20036;-79
2024/02/07 10:47:43;;;;;;;17.90;1.80;;;;;;;;;;5020504;28;20022;-79
2024/02/07 10:50:09;;;;;;;14.10;1.73;;;;;;;;;;5017742;28;20109;-79
2024/02/07 10:52:34;;;;;;;10.20;1.70;;;;;;;;;;5022667;28;20020;-80
2024/02/07 10:55:00;;;;;;;9.80;1.10;;;;;;;;;;5032494;28;20034;-80
2024/02/07 10:57:30;;;;;;;10.53;1.63;;;;;;;;;;5025519;28;20041;-79
2024/02/07 10:59:57;;;;;;;14.67;1.90;;;;;;;;;;5030752;28;20024;-79
2024/02/07 11:02:23;;;;;;;12.63;1.70;;;;;;;;;;5029323;28;20655;-79
2024/02/07 11:04:49;;;;;;;15.40;1.87;;;;;;;;;;5013560;28;20112;-79
2024/02/07 11:07:16;;;;;;;14.80;2.73;;;;;;;;;;5031037;28;20021;-79
2024/02/07 11:09:43;;;;;;;9.90;1.50;;;;;;;;;;5031602;28;20490;-79
2024/02/07 11:12:09;;;;;;;16.77;3.07;;;;;;;;;;5030177;28;20010;-79
2024/02/07 11:14:36;;;;;;;9.07;1.50;;;;;;;;;;5031468;28;20077;-79
2024/02/07 11:17:01;;;;;;;9.07;1.83;;;;;;;;;;5031075;28;20108;-79
2024/02/07 11:19:26;;;;;;;11.03;1.57;;;;;;;;;;5028337;28;20175;-81
2024/02/07 11:21:52;;;;;;;11.37;1.87;;;;;;;;;;5023735;28;20018;-80
2024/02/07 11:24:21;;;;;;;11.47;2.17;;;;;;;;;;5025436;28;20030;-79
2024/02/07 11:26:46;;;;;;;8.50;1.90;;;;;;;;;;5032187;28;20098;-79
2024/02/07 11:29:12;;;;;;;11.53;1.50;;;;;;;;;;5028113;28;20068;-80
2024/02/07 11:31:39;;;;;;;12.47;2.20;;;;;;;;;;5025900;28;20026;-79
2024/02/07 11:34:06;;;;;;;14.47;1.60;;;;;;;;;;5018738;28;20064;-80
2024/02/07 11:36:32;;;;;;;7.63;1.40;;;;;;;;;;5029937;28;20033;-79
2024/02/07 11:38:58;;;;;;;6.60;1.77;;;;;;;;;;5019060;28;20030;-79
2024/02/07 11:41:24;;;;;;;10.73;1.93;;;;;;;;;;5018481;28;20028;-80
2024/02/07 11:43:53;;;;;;;9.77;1.60;;;;;;;;;;5027064;28;20108;-79
2024/02/07 11:46:19;;;;;;;7.13;1.37;;;;;;;;;;5017873;28;20325;-79
2024/02/07 11:48:49;;;;;;;13.67;1.70;;;;;;;;;;5030904;28;20442;-79
2024/02/07 11:51:15;;;;;;;17.73;1.80;;;;;;;;;;5030969;28;20040;-79
2024/02/07 11:53:41;;;;;;;7.60;1.50;;;;;;;;;;5029764;28;20116;-79
2024/02/07 11:56:10;;;;;;;13.30;1.87;;;;;;;;;;5035303;28;20109;-79
2024/02/07 11:58:35;;;;;;;12.57;1.63;;;;;;;;;;5029847;28;20030;-79
2024/02/07 12:01:01;;;;;;;8.97;1.63;;;;;;;;;;5019955;28;21137;-79
2024/02/07 12:03:26;;;;;;;15.03;2.30;;;;;;;;;;5028927;28;20029;-79
2024/02/07 12:05:52;;;;;;;8.57;1.60;;;;;;;;;;5020283;28;20036;-80
2024/02/07 12:08:18;;;;;;;14.37;1.90;;;;;;;;;;5026806;28;20042;-79
2024/02/07 12:10:44;;;;;;;6.90;1.37;;;;;;;;;;5029497;28;20033;-80
2024/02/07 12:13:10;;;;;;;12.30;1.50;;;;;;;;;;5032596;28;20444;-79
2024/02/07 12:15:36;;;;;;;10.47;1.67;;;;;;;;;;5030228;28;20115;-80
2024/02/07 12:18:02;;;;;;;8.00;1.37;;;;;;;;;;5028738;28;20028;-80
2024/02/07 12:20:29;;;;;;;10.07;1.50;;;;;;;;;;5029284;28;20041;-80
2024/02/07 12:23:03;;;;;;;11.03;2.03;;;;;;;;;;5020006;28;20483;-80
2024/02/07 12:25:29;;;;;;;8.33;1.50;;;;;;;;;;4992014;28;20041;-80
2024/02/07 12:27:54;;;;;;;10.67;1.80;;;;;;;;;;5008009;28;20022;-80
2024/02/07 12:30:20;;;;;;;11.67;1.37;;;;;;;;;;5010795;28;20164;-89
2024/02/07 12:32:45;;;;;;;7.60;1.37;;;;;;;;;;5004442;28;20045;-89
2024/02/07 12:35:10;;;;;;;13.17;1.37;;;;;;;;;;5010576;28;20037;-88
2024/02/07 12:37:36;;;;;;;9.00;1.30;;;;;;;;;;5007554;28;20139;-88
2024/02/07 12:40:01;;;;;;;7.63;1.17;;;;;;;;;;5010728;28;20026;-89
2024/02/07 12:42:27;;;;;;;10.57;1.43;;;;;;;;;;5010039;28;20601;-88
2024/02/07 12:44:53;;;;;;;10.40;1.27;;;;;;;;;;5010330;28;20021;-87
2024/02/07 12:47:20;;;;;;;9.10;1.87;;;;;;;;;;5011077;28;20037;-89
2024/02/07 12:49:46;;;;;;;7.83;1.37;;;;;;;;;;4998140;28;20067;-89
2024/02/07 12:52:12;;;;;;;8.53;1.60;;;;;;;;;;5011271;28;20022;-88
2024/02/07 12:54:38;;;;;;;10.50;1.30;;;;;;;;;;5009215;28;20024;-87
2024/02/07 12:57:03;;;;;;;8.17;1.37;;;;;;;;;;4987130;28;20022;-89
2024/02/07 12:59:33;;;;;;;8.80;1.60;;;;;;;;;;4991365;28;20030;-88
2024/02/07 13:02:02;;;;;;;9.37;1.53;;;;;;;;;;5005026;28;20077;-89
2024/02/07 13:04:27;;;;;;;15.07;1.87;;;;;;;;;;5006595;28;20056;-88
2024/02/07 13:06:52;;;;;;;7.67;1.60;;;;;;;;;;5010474;28;20080;-88
2024/02/07 13:09:18;;;;;;;11.63;1.13;;;;;;;;;;5011234;28;20029;-88
2024/02/07 13:11:43;;;;;;;11.07;1.73;;;;;;;;;;5000039;28;20462;-88
2024/02/07 13:14:10;;;;;;;11.70;1.80;;;;;;;;;;5012569;28;20605;-88
2024/02/07 13:16:35;;;;;;;10.37;1.53;;;;;;;;;;5010077;28;20140;-88
2024/02/07 13:19:00;;;;;;;11.67;1.50;;;;;;;;;;5002260;28;20057;-87
2024/02/07 13:21:26;;;;;;;6.20;1.00;;;;;;;;;;5001908;28;20030;-88
2024/02/07 13:23:51;;;;;;;10.53;1.40;;;;;;;;;;5027323;28;20098;-89
2024/02/07 13:26:21;;;;;;;6.93;1.30;;;;;;;;;;5029229;28;20347;-88
2024/02/07 13:28:49;;;;;;;8.80;1.53;;;;;;;;;;5029328;28;20026;-89
2024/02/07 13:31:15;;;;;;;6.27;1.40;;;;;;;;;;5027657;28;20057;-88
2024/02/07 13:33:40;;;;;;;9.70;1.30;;;;;;;;;;5026023;28;20037;-89
2024/02/07 13:36:06;;;;;;;8.27;1.10;;;;;;;;;;5029916;28;20033;-89
2024/02/07 13:38:31;;;;;;;8.00;1.33;;;;;;;;;;5028257;28;20122;-89
2024/02/07 13:40:56;;;;;;;8.63;1.90;;;;;;;;;;5030299;28;20056;-88
2024/02/07 13:43:22;;;;;;;3.97;1.03;;;;;;;;;;5030670;28;20477;-88
2024/02/07 13:45:47;;;;;;;9.40;1.43;;;;;;;;;;5024610;28;20026;-88
2024/02/07 13:48:12;;;;;;;16.57;1.50;;;;;;;;;;5038096;28;20030;-87
2024/02/07 13:50:38;;;;;;;7.67;1.90;;;;;;;;;;5032389;28;20017;-88
2024/02/07 13:53:04;;;;;;;8.33;1.30;;;;;;;;;;5029114;28;20021;-86
2024/02/07 13:55:29;;;;;;;11.43;1.60;;;;;;;;;;5031321;28;20029;-88
2024/02/07 13:57:55;;;;;;;12.03;1.97;;;;;;;;;;5026887;28;20022;-89
2024/02/07 14:00:20;;;;;;;9.13;1.90;;;;;;;;;;5025449;28;20108;-88
2024/02/07 14:02:45;;;;;;;12.13;1.33;;;;;;;;;;5028912;28;20022;-88
2024/02/07 14:05:11;;;;;;;7.07;1.17;;;;;;;;;;5031029;28;20033;-89
2024/02/07 14:07:36;;;;;;;11.93;1.50;;;;;;;;;;5007690;28;20022;-89
2024/02/07 14:10:02;;;;;;;8.07;1.23;;;;;;;;;;5031268;28;20474;-90
2024/02/07 14:12:28;;;;;;;14.13;1.57;;;;;;;;;;5032008;28;20018;-89
2024/02/07 14:14:54;;;;;;;12.47;1.90;;;;;;;;;;5031773;28;20022;-89
2024/02/07 14:17:19;;;;;;;10.37;1.80;;;;;;;;;;5035725;28;20052;-89
2024/02/07 14:19:44;;;;;;;8.67;1.53;;;;;;;;;;5032096;28;20528;-87
2024/02/07 14:22:09;;;;;;;10.23;1.40;;;;;;;;;;5037681;28;20022;-90
2024/02/07 14:24:35;;;;;;;7.77;1.37;;;;;;;;;;5034389;28;20029;-89
2024/02/07 14:27:00;;;;;;;11.47;1.30;;;;;;;;;;5034766;28;20067;-87
2024/02/07 14:29:25;;;;;;;12.43;1.50;;;;;;;;;;5033368;28;20114;-89
2024/02/07 14:31:51;;;;;;;11.73;1.77;;;;;;;;;;5033992;28;20359;-84
2024/02/07 14:34:16;;;;;;;11.67;2.00;;;;;;;;;;5034884;28;20018;-89
2024/02/07 14:36:42;;;;;;;11.70;1.90;;;;;;;;;;5034575;28;20034;-83
2024/02/07 14:39:07;;;;;;;6.97;1.60;;;;;;;;;;5033501;28;20385;-89
2024/02/07 14:41:32;;;;;;;9.53;1.60;;;;;;;;;;5035853;28;20114;-90
2024/02/07 14:43:57;;;;;;;12.97;1.70;;;;;;;;;;5033033;28;20032;-89
2024/02/07 14:46:23;;;;;;;13.40;1.60;;;;;;;;;;5033435;28;20026;-90
2024/02/07 14:48:48;;;;;;;11.83;1.70;;;;;;;;;;5017023;28;20025;-88
2024/02/07 14:51:13;;;;;;;12.57;1.80;;;;;;;;;;5031991;28;20079;-80
2024/02/07 14:53:38;;;;;;;15.50;1.90;;;;;;;;;;5030445;28;20051;-80
2024/02/07 14:56:05;;;;;;;9.53;1.53;;;;;;;;;;5026685;28;20075;-80
2024/02/07 14:58:30;;;;;;;10.77;1.50;;;;;;;;;;5031421;28;20056;-80
2024/02/07 15:00:55;;;;;;;9.10;1.63;;;;;;;;;;5031843;28;20025;-80
2024/02/07 15:03:21;;;;;;;8.60;1.60;;;;;;;;;;5013787;28;20374;-80
2024/02/07 15:05:46;;;;;;;11.37;1.53;;;;;;;;;;5031842;28;20025;-81
2024/02/07 15:08:11;;;;;;;9.50;2.13;;;;;;;;;;5030760;28;20382;-81
2024/02/07 15:10:37;;;;;;;10.47;1.47;;;;;;;;;;5041998;28;20022;-82
2024/02/07 15:13:02;;;;;;;10.93;1.80;;;;;;;;;;5056493;28;20029;-81
2024/02/07 15:15:28;;;;;;;7.97;1.47;;;;;;;;;;5056199;28;20044;-81
2024/02/07 15:17:54;;;;;;;11.90;2.13;;;;;;;;;;5053999;28;20073;-81
2024/02/07 15:20:19;;;;;;;10.63;1.67;;;;;;;;;;5057365;28;20156;-82
2024/02/07 15:22:44;;;;;;;7.53;1.63;;;;;;;;;;5055237;28;20068;-82
2024/02/07 15:25:09;;;;;;;7.17;1.70;;;;;;;;;;5050205;28;20036;-80
2024/02/07 15:27:36;;;;;;;14.17;2.33;;;;;;;;;;5029916;28;20536;-80
2024/02/07 15:30:03;;;;;;;10.23;1.90;;;;;;;;;;5028978;28;20026;-80
2024/02/07 15:32:28;;;;;;;9.77;2.10;;;;;;;;;;5032798;28;20032;-81